Hauptseite
METAR-TAF:

METAR-TAF

Flughäfen :

Dakar, Senegal

Flughafen Dakar-Léopold Sédar Senghor

Breite: 14-44N, Länge: 017-30W, Höhe: 27 m

Beobachtung

Neuester Wetterbericht von vor 20 Minuten, um 08:00 UTC
Wind 11 kt aus Nord/Nordost
Temperatur 22°C
Luftfeuchtigkeit 83%
Luftdruck 1013 hPa
Sichtweite 10 km oder mehr
keine Wolken unter 1500 m und keine Kumulonimbus oder Gewitterwolken

METAR: GOOY 280800Z 02011KT CAVOK 22/19 Q1013 NOSIG

Zeit: 08:20 (08:20 UTC)

Prognose

Neuester Wetterbericht von vor 2 Stunden und 50 Minuten, um 05:30 UTC
Gültige Prognose vom 28 um 06 UTC bis 29 um 12 UTC
Wind 15 kt aus Nord/Nordost
Sichtweite 10 km oder mehr
keine Wolken unter 1500 m und keine Kumulonimbus oder Gewitterwolken

TAF: GOOY 280530Z 2806/2912 02015KT CAVOK

Wetterbeobachtungen und Prognosen von mehr als 4000 Flughäfen (METAR und TAF Bericht).

Die verfügbaren Stationen werden durch gelbe und rote Markierungen auf der Karte dargestellt.

Führen Sie die Maus auf sie, um den Namen der Station zu sehen.

Darauf klicken, um die Beobachtung von Wetterbeobachtungen und Prognosen zu sehen.

Um die Karte zu ändern : klicken Sie auf den grünen Tasten mit einem schwarzen Kreuz Zum Vergrößern, auf den grünen Button mit einem Gedankenstrich zu verkleinern, oder auf die grünen Pfeile für benachbarte Karten.


METAR-TAF: